createdAt,value
2023-01-11T00:00:59.228Z,22.67
2023-01-11T00:04:41.602Z,20.13
2023-01-11T00:08:26.699Z,21.90
2023-01-11T00:12:08.502Z,20.15
2023-01-11T00:15:50.392Z,16.00
2023-01-11T00:19:32.278Z,12.10
2023-01-11T00:23:14.267Z,15.65
2023-01-11T00:26:56.143Z,19.60
2023-01-11T00:30:38.969Z,22.15
2023-01-11T00:34:21.003Z,13.40
2023-01-11T00:38:02.850Z,22.98
2023-01-11T00:42:17.173Z,16.70
2023-01-11T00:46:17.756Z,23.85
2023-01-11T00:49:59.587Z,18.38
2023-01-11T00:53:41.500Z,15.27
2023-01-11T00:57:23.327Z,25.10
2023-01-11T01:01:08.252Z,24.50
2023-01-11T01:04:50.097Z,25.27
2023-01-11T01:08:32.128Z,22.92
2023-01-11T01:12:33.903Z,18.58
2023-01-11T01:16:15.798Z,20.90
2023-01-11T01:19:57.681Z,17.20
2023-01-11T01:23:39.528Z,24.02
2023-01-11T01:27:21.404Z,21.08
2023-01-11T01:31:03.373Z,20.40
2023-01-11T01:34:45.223Z,18.83
2023-01-11T01:38:27.591Z,20.23
2023-01-11T01:42:18.668Z,17.95
2023-01-11T01:46:00.502Z,15.35
2023-01-11T01:49:44.341Z,21.48
2023-01-11T01:53:29.350Z,26.13
2023-01-11T01:57:25.899Z,16.35
2023-01-11T02:01:26.172Z,21.05
2023-01-11T02:05:10.051Z,15.20
2023-01-11T02:12:40.582Z,24.00
2023-01-11T02:16:22.666Z,21.25
2023-01-11T02:20:26.419Z,18.33
2023-01-11T02:24:37.380Z,25.58
2023-01-11T02:28:59.601Z,19.75
2023-01-11T02:33:05.380Z,28.73
2023-01-11T02:36:50.013Z,16.17
2023-01-11T02:40:49.307Z,21.35
2023-01-11T02:49:10.057Z,19.48
2023-01-11T02:53:03.243Z,21.70
2023-01-11T02:56:48.643Z,20.80
2023-01-11T03:00:30.970Z,21.77
2023-01-11T03:04:32.777Z,24.15
2023-01-11T03:08:45.798Z,19.92
2023-01-11T03:12:57.823Z,24.33
2023-01-11T03:17:21.690Z,21.80
2023-01-11T03:21:17.110Z,24.73
2023-01-11T03:25:17.891Z,24.92
2023-01-11T03:29:37.123Z,20.77
2023-01-11T03:37:35.271Z,29.20
2023-01-11T03:41:23.458Z,20.70
2023-01-11T03:45:05.974Z,24.95
2023-01-11T03:49:05.762Z,30.23
2023-01-11T03:52:47.711Z,33.38
2023-01-11T03:56:43.163Z,22.40
2023-01-11T04:00:26.212Z,22.25
2023-01-11T04:04:08.118Z,30.08
2023-01-11T04:07:50.003Z,31.55
2023-01-11T04:11:32.004Z,18.77
2023-01-11T04:15:15.064Z,27.05
2023-01-11T04:18:57.115Z,21.85
2023-01-11T04:22:39.208Z,22.13
2023-01-11T04:26:21.170Z,20.38
2023-01-11T04:30:03.868Z,18.23
2023-01-11T04:33:45.762Z,21.42
2023-01-11T04:37:27.611Z,22.25
2023-01-11T04:41:28.337Z,17.23
2023-01-11T04:45:11.117Z,13.93
2023-01-11T04:48:53.285Z,14.05
2023-01-11T04:52:35.212Z,16.88
2023-01-11T04:56:17.123Z,18.00
2023-01-11T04:59:58.952Z,10.98
2023-01-11T05:03:40.831Z,15.80
2023-01-11T05:07:22.693Z,13.00
2023-01-11T05:11:07.501Z,10.82
2023-01-11T05:14:49.568Z,12.93
2023-01-11T05:18:31.403Z,14.82
2023-01-11T05:22:13.294Z,14.98
2023-01-11T05:25:55.110Z,16.38
2023-01-11T05:29:36.961Z,11.85
2023-01-11T05:33:19.387Z,14.82
2023-01-11T05:37:01.266Z,14.38
2023-01-11T05:40:43.087Z,20.08
2023-01-11T05:44:43.432Z,15.13
2023-01-11T05:48:25.835Z,12.93
2023-01-11T05:52:07.756Z,18.73
2023-01-11T05:55:57.759Z,10.05
2023-01-11T05:59:39.737Z,18.30
2023-01-11T06:03:22.894Z,15.05
2023-01-11T06:07:04.837Z,12.43
2023-01-11T06:10:54.466Z,9.10
2023-01-11T06:14:38.141Z,11.40
2023-01-11T06:18:20.615Z,13.88
2023-01-11T06:22:02.625Z,12.88
2023-01-11T06:25:45.478Z,8.88
2023-01-11T06:29:27.354Z,10.50
2023-01-11T06:33:09.308Z,9.77
2023-01-11T06:36:51.201Z,11.57
2023-01-11T06:40:33.108Z,12.82
2023-01-11T06:44:15.107Z,11.95
2023-01-11T06:47:57.183Z,14.23
2023-01-11T06:51:39.042Z,12.18
2023-01-11T06:55:21.902Z,13.75
2023-01-11T06:59:03.886Z,18.80
2023-01-11T07:02:46.872Z,14.18
2023-01-11T07:06:32.007Z,16.70
2023-01-11T07:10:16.355Z,21.30
2023-01-11T07:13:58.238Z,16.02
2023-01-11T07:17:40.072Z,24.00
2023-01-11T07:21:22.065Z,20.73
2023-01-11T07:25:05.228Z,19.50
2023-01-11T07:28:47.077Z,18.23
2023-01-11T07:32:29.243Z,19.92
2023-01-11T07:36:11.151Z,17.88
2023-01-11T07:39:52.985Z,16.55
2023-01-11T07:43:34.829Z,17.08
2023-01-11T07:47:16.726Z,15.18
2023-01-11T07:50:58.564Z,14.88
2023-01-11T07:54:40.434Z,16.58
2023-01-11T07:58:22.409Z,11.70
2023-01-11T08:02:04.341Z,21.55
2023-01-11T08:05:51.430Z,16.33
2023-01-11T08:09:33.296Z,16.83
2023-01-11T08:13:33.611Z,13.23
2023-01-11T08:17:16.854Z,14.80
2023-01-11T08:20:58.700Z,15.95
2023-01-11T08:24:40.721Z,20.15
2023-01-11T08:28:22.549Z,17.83
2023-01-11T08:32:04.545Z,12.68
2023-01-11T08:35:46.426Z,17.63
2023-01-11T08:39:31.069Z,15.50
2023-01-11T08:43:12.999Z,12.55
2023-01-11T08:46:54.832Z,11.77
2023-01-11T08:50:36.677Z,19.35
2023-01-11T08:54:18.513Z,14.10
2023-01-11T08:58:00.333Z,10.73
2023-01-11T09:01:42.247Z,10.15
2023-01-11T09:05:24.838Z,7.32
2023-01-11T09:09:06.708Z,8.85
2023-01-11T09:12:48.539Z,9.85
2023-01-11T09:16:30.617Z,7.30
2023-01-11T09:20:12.547Z,13.70
2023-01-11T09:23:54.410Z,6.95
2023-01-11T09:27:36.218Z,5.07
2023-01-11T09:31:18.162Z,9.82
2023-01-11T09:35:01.113Z,10.45
2023-01-11T09:38:43.970Z,8.30
2023-01-11T09:42:39.590Z,8.45
2023-01-11T09:46:22.979Z,6.57
2023-01-11T09:50:13.285Z,11.25
2023-01-11T09:54:32.184Z,8.75
2023-01-11T09:58:29.230Z,5.90
2023-01-11T10:02:29.707Z,10.30
2023-01-11T10:06:33.402Z,5.47
2023-01-11T10:18:33.612Z,7.20
2023-01-11T10:19:36.038Z,9.82
2023-01-11T10:23:26.082Z,8.68
2023-01-11T10:27:21.690Z,10.77
2023-01-11T10:31:29.999Z,6.50
2023-01-11T10:35:47.888Z,8.18
2023-01-11T10:40:01.522Z,10.88
2023-01-11T10:43:53.309Z,8.15
2023-01-11T10:47:41.271Z,8.73
2023-01-11T10:51:44.748Z,13.05
2023-01-11T10:55:46.042Z,14.55
2023-01-11T10:59:30.943Z,10.38
2023-01-11T11:03:25.463Z,13.25
2023-01-11T11:07:17.213Z,8.90
2023-01-11T11:11:01.925Z,12.35
2023-01-11T11:15:20.329Z,11.07
2023-01-11T11:19:02.306Z,11.33
2023-01-11T11:22:50.039Z,15.07
2023-01-11T11:26:38.977Z,13.65
2023-01-11T11:30:47.447Z,13.50
2023-01-11T11:34:30.812Z,16.50
2023-01-11T11:38:42.848Z,16.63
2023-01-11T11:42:25.811Z,11.93
2023-01-11T11:46:20.126Z,8.13
2023-01-11T11:50:42.479Z,10.25
2023-01-11T11:54:36.281Z,8.60
2023-01-11T11:58:21.277Z,6.88
2023-01-11T12:02:05.944Z,5.97
2023-01-11T12:06:02.770Z,4.25
2023-01-11T12:10:05.561Z,5.78
2023-01-11T12:14:04.681Z,5.75
2023-01-11T12:17:47.009Z,7.68
2023-01-11T12:21:32.566Z,3.97
2023-01-11T12:25:14.365Z,5.25
2023-01-11T12:29:14.031Z,4.90
2023-01-11T12:33:06.056Z,7.90
2023-01-11T12:37:02.409Z,3.50
2023-01-11T12:40:44.268Z,7.93
2023-01-11T12:44:32.093Z,16.35
2023-01-11T12:48:28.332Z,8.93
2023-01-11T12:52:36.093Z,18.48
2023-01-11T12:56:41.358Z,21.10
2023-01-11T13:00:52.634Z,13.65
2023-01-11T13:04:58.662Z,18.45
2023-01-11T13:09:01.582Z,24.70
2023-01-11T13:12:51.405Z,14.73
2023-01-11T13:16:47.241Z,17.25
2023-01-11T13:20:48.711Z,13.93
2023-01-11T13:24:35.846Z,17.23
2023-01-11T13:28:38.466Z,13.27
2023-01-11T13:32:28.251Z,18.55
2023-01-11T13:36:23.606Z,15.50
2023-01-11T13:40:27.181Z,11.27
2023-01-11T13:44:27.831Z,19.17
2023-01-11T13:48:45.424Z,15.45
2023-01-11T13:53:09.776Z,14.27
2023-01-11T13:57:00.249Z,18.55
2023-01-11T14:00:52.575Z,17.10
2023-01-11T14:05:15.730Z,18.55
2023-01-11T14:09:14.847Z,16.13
2023-01-11T14:13:05.688Z,21.42
2023-01-11T14:16:59.534Z,26.27
2023-01-11T14:21:11.827Z,14.00
2023-01-11T14:25:34.817Z,15.55
2023-01-11T14:29:33.118Z,12.30
2023-01-11T14:33:26.755Z,10.30
2023-01-11T14:37:41.706Z,17.15
2023-01-11T14:41:23.552Z,5.78
2023-01-11T14:45:25.531Z,6.00
2023-01-11T14:49:30.728Z,4.13
2023-01-11T14:53:18.759Z,5.97
2023-01-11T15:00:42.676Z,8.57
2023-01-11T15:04:24.558Z,5.20
2023-01-11T15:08:15.670Z,7.85
2023-01-11T15:12:12.359Z,6.13
2023-01-11T15:16:26.545Z,4.45
2023-01-11T15:20:17.290Z,2.88
2023-01-11T15:23:59.252Z,5.28
2023-01-11T15:27:41.152Z,4.85
2023-01-11T15:31:34.276Z,10.38
2023-01-11T15:35:28.162Z,7.07
2023-01-11T15:39:11.113Z,7.05
2023-01-11T15:43:28.486Z,8.35
2023-01-11T15:47:34.435Z,13.63
2023-01-11T15:51:24.867Z,12.88
2023-01-11T15:55:36.064Z,16.05
2023-01-11T15:59:45.938Z,10.23
2023-01-11T16:03:40.865Z,11.25
2023-01-11T16:07:30.963Z,15.70
2023-01-11T16:11:43.218Z,12.55
2023-01-11T16:15:43.788Z,9.70
2023-01-11T16:19:31.661Z,12.05
2023-01-11T16:23:20.453Z,17.45
2023-01-11T16:27:04.049Z,16.45
2023-01-11T16:30:47.208Z,10.35
2023-01-11T16:34:38.005Z,16.48
2023-01-11T16:38:23.746Z,19.05
2023-01-11T16:42:06.773Z,17.50
2023-01-11T16:45:54.144Z,8.55
2023-01-11T16:49:36.169Z,8.00
2023-01-11T16:53:18.145Z,10.40
2023-01-11T16:57:01.254Z,6.85
2023-01-11T17:00:43.403Z,10.20
2023-01-11T17:04:31.905Z,7.18
2023-01-11T17:08:34.945Z,9.50
2023-01-11T17:12:27.131Z,12.02
2023-01-11T17:16:13.131Z,17.25
2023-01-11T17:19:58.787Z,14.52
2023-01-11T17:23:41.840Z,8.98
2023-01-11T17:27:35.753Z,15.90
2023-01-11T17:31:31.014Z,7.82
2023-01-11T17:35:17.041Z,12.25
2023-01-11T17:38:59.262Z,12.85
2023-01-11T17:42:59.526Z,18.20
2023-01-11T17:46:41.689Z,14.85
2023-01-11T17:50:35.579Z,22.95
2023-01-11T17:54:23.979Z,29.15
2023-01-11T17:58:08.848Z,25.90
2023-01-11T18:01:52.674Z,28.77
2023-01-11T18:05:35.374Z,29.60
2023-01-11T18:17:57.027Z,28.98
2023-01-11T18:21:50.121Z,42.33
2023-01-11T18:25:34.847Z,38.30
2023-01-11T18:29:20.844Z,31.08
2023-01-11T18:33:09.105Z,34.30
2023-01-11T18:37:15.827Z,32.45
2023-01-11T18:45:24.940Z,33.15
2023-01-11T18:49:06.795Z,27.95
2023-01-11T18:52:48.759Z,34.85
2023-01-11T18:56:30.595Z,39.40
2023-01-11T19:00:15.069Z,38.50
2023-01-11T19:03:56.962Z,38.28
2023-01-11T19:07:38.877Z,37.15
2023-01-11T19:11:20.761Z,44.78
2023-01-11T19:15:02.611Z,33.55
2023-01-11T19:18:45.892Z,45.13
2023-01-11T19:22:27.759Z,38.55
2023-01-11T19:26:09.676Z,36.42
2023-01-11T19:29:52.848Z,32.80
2023-01-11T19:33:35.067Z,35.75
2023-01-11T19:41:04.535Z,27.85
2023-01-11T19:44:46.342Z,37.30
2023-01-11T19:48:28.370Z,36.83
2023-01-11T19:52:19.045Z,28.08
2023-01-11T19:56:06.494Z,29.35
2023-01-11T19:59:49.588Z,23.23
2023-01-11T20:03:31.480Z,26.73
2023-01-11T20:07:14.916Z,25.45
2023-01-11T20:10:56.788Z,26.85
2023-01-11T20:14:40.476Z,24.20
2023-01-11T20:18:22.632Z,24.77
2023-01-11T20:22:21.579Z,25.45
2023-01-11T20:26:07.189Z,23.67
2023-01-11T20:29:49.172Z,16.42
2023-01-11T20:33:31.541Z,18.63
2023-01-11T20:37:15.256Z,13.98
2023-01-11T20:40:57.621Z,21.33
2023-01-11T20:49:05.797Z,22.48
2023-01-11T20:52:49.402Z,24.48
2023-01-11T20:56:33.560Z,22.42
2023-01-11T21:00:15.938Z,28.83
2023-01-11T21:04:09.081Z,23.88
2023-01-11T21:07:53.145Z,23.70
2023-01-11T21:11:35.713Z,19.10
2023-01-11T21:15:17.552Z,24.85
2023-01-11T21:19:04.032Z,25.80
2023-01-11T21:22:47.349Z,25.73
2023-01-11T21:26:31.091Z,26.00
2023-01-11T21:30:13.087Z,21.95
2023-01-11T21:33:55.100Z,26.60
2023-01-11T21:37:36.925Z,26.70
2023-01-11T21:41:40.560Z,41.78
2023-01-11T21:45:22.678Z,28.67
2023-01-11T21:49:04.928Z,16.88
2023-01-11T21:52:46.738Z,24.50
2023-01-11T21:56:28.631Z,19.55
2023-01-11T22:00:12.642Z,22.75
2023-01-11T22:03:55.318Z,32.10
2023-01-11T22:07:39.557Z,29.17
2023-01-11T22:11:22.687Z,25.23
2023-01-11T22:15:04.865Z,30.27
2023-01-11T22:22:28.254Z,25.35
2023-01-11T22:26:12.822Z,25.92
2023-01-11T22:29:54.922Z,34.90
2023-01-11T22:33:37.262Z,32.63
2023-01-11T22:37:19.962Z,28.33
2023-01-11T22:41:01.841Z,27.65
2023-01-11T22:44:43.669Z,24.35
2023-01-11T22:48:26.075Z,23.95
2023-01-11T22:52:07.954Z,30.25
2023-01-11T22:55:49.789Z,34.50
2023-01-11T22:59:31.653Z,29.33
2023-01-11T23:03:14.782Z,32.08
2023-01-11T23:06:57.350Z,34.75
2023-01-11T23:10:39.194Z,28.90
2023-01-11T23:14:21.437Z,24.55
2023-01-11T23:18:03.819Z,16.23
2023-01-11T23:21:46.210Z,18.55
2023-01-11T23:25:28.165Z,14.85
2023-01-11T23:29:10.161Z,14.70
2023-01-11T23:32:52.017Z,11.02
2023-01-11T23:36:36.749Z,12.90
2023-01-11T23:40:18.594Z,11.45
2023-01-11T23:44:01.449Z,10.07
2023-01-11T23:47:43.281Z,8.70
2023-01-11T23:51:25.126Z,9.27
2023-01-11T23:55:07.412Z,6.03
2023-01-11T23:58:49.352Z,4.70
